sensor_id;sensor_type;location;lat;lon;timestamp;P1;durP1;ratioP1;P2;durP2;ratioP2
39208;SDS011;24929;51.982;4.664;2023-04-22T00:00:46;28.65;;;22.13;;
39208;SDS011;24929;51.982;4.664;2023-04-22T00:03:12;24.42;;;20.40;;
39208;SDS011;24929;51.982;4.664;2023-04-22T00:05:38;30.23;;;23.92;;
39208;SDS011;24929;51.982;4.664;2023-04-22T00:08:04;28.85;;;21.55;;
39208;SDS011;24929;51.982;4.664;2023-04-22T00:10:29;29.40;;;23.60;;
39208;SDS011;24929;51.982;4.664;2023-04-22T00:12:55;32.28;;;25.75;;
39208;SDS011;24929;51.982;4.664;2023-04-22T00:15:20;31.33;;;23.65;;
39208;SDS011;24929;51.982;4.664;2023-04-22T00:17:48;29.02;;;24.25;;
39208;SDS011;24929;51.982;4.664;2023-04-22T00:20:14;31.02;;;23.88;;
39208;SDS011;24929;51.982;4.664;2023-04-22T00:22:40;30.20;;;21.92;;
39208;SDS011;24929;51.982;4.664;2023-04-22T00:25:05;33.88;;;22.35;;
39208;SDS011;24929;51.982;4.664;2023-04-22T00:27:31;25.80;;;21.92;;
39208;SDS011;24929;51.982;4.664;2023-04-22T00:29:57;34.15;;;23.85;;
39208;SDS011;24929;51.982;4.664;2023-04-22T00:32:22;31.08;;;21.63;;
39208;SDS011;24929;51.982;4.664;2023-04-22T00:34:47;29.45;;;22.55;;
39208;SDS011;24929;51.982;4.664;2023-04-22T00:37:13;32.38;;;22.17;;
39208;SDS011;24929;51.982;4.664;2023-04-22T00:39:39;31.95;;;23.67;;
39208;SDS011;24929;51.982;4.664;2023-04-22T00:42:05;29.92;;;21.50;;
39208;SDS011;24929;51.982;4.664;2023-04-22T00:44:31;33.28;;;23.95;;
39208;SDS011;24929;51.982;4.664;2023-04-22T00:46:57;33.40;;;21.88;;
39208;SDS011;24929;51.982;4.664;2023-04-22T00:49:24;28.35;;;23.55;;
39208;SDS011;24929;51.982;4.664;2023-04-22T00:51:51;27.55;;;21.63;;
39208;SDS011;24929;51.982;4.664;2023-04-22T00:54:17;23.90;;;18.63;;
39208;SDS011;24929;51.982;4.664;2023-04-22T00:56:43;25.35;;;18.85;;
39208;SDS011;24929;51.982;4.664;2023-04-22T00:59:09;38.38;;;17.08;;
39208;SDS011;24929;51.982;4.664;2023-04-22T01:01:35;32.22;;;15.57;;
39208;SDS011;24929;51.982;4.664;2023-04-22T01:04:02;18.08;;;15.10;;
39208;SDS011;24929;51.982;4.664;2023-04-22T01:06:28;41.40;;;16.60;;
39208;SDS011;24929;51.982;4.664;2023-04-22T01:08:56;45.85;;;15.82;;
39208;SDS011;24929;51.982;4.664;2023-04-22T01:11:22;65.78;;;16.42;;
39208;SDS011;24929;51.982;4.664;2023-04-22T01:13:48;49.45;;;16.35;;
39208;SDS011;24929;51.982;4.664;2023-04-22T01:16:13;48.50;;;15.82;;
39208;SDS011;24929;51.982;4.664;2023-04-22T01:18:39;65.07;;;15.30;;
39208;SDS011;24929;51.982;4.664;2023-04-22T01:21:04;90.05;;;16.90;;
39208;SDS011;24929;51.982;4.664;2023-04-22T01:23:31;36.88;;;13.85;;
39208;SDS011;24929;51.982;4.664;2023-04-22T01:25:57;34.85;;;15.48;;
39208;SDS011;24929;51.982;4.664;2023-04-22T01:28:23;56.10;;;16.30;;
39208;SDS011;24929;51.982;4.664;2023-04-22T01:30:48;41.22;;;16.77;;
39208;SDS011;24929;51.982;4.664;2023-04-22T01:33:14;54.88;;;16.27;;
39208;SDS011;24929;51.982;4.664;2023-04-22T01:35:41;29.48;;;14.45;;
39208;SDS011;24929;51.982;4.664;2023-04-22T01:38:07;25.92;;;17.95;;
39208;SDS011;24929;51.982;4.664;2023-04-22T01:40:33;42.88;;;18.92;;
39208;SDS011;24929;51.982;4.664;2023-04-22T01:42:59;24.92;;;20.88;;
39208;SDS011;24929;51.982;4.664;2023-04-22T01:45:25;25.65;;;17.67;;
39208;SDS011;24929;51.982;4.664;2023-04-22T01:47:51;47.25;;;20.42;;
39208;SDS011;24929;51.982;4.664;2023-04-22T01:50:17;92.28;;;17.13;;
39208;SDS011;24929;51.982;4.664;2023-04-22T01:52:42;130.90;;;18.75;;
39208;SDS011;24929;51.982;4.664;2023-04-22T01:55:08;89.43;;;17.48;;
39208;SDS011;24929;51.982;4.664;2023-04-22T01:57:33;51.72;;;15.05;;
39208;SDS011;24929;51.982;4.664;2023-04-22T01:59:59;55.33;;;15.52;;
39208;SDS011;24929;51.982;4.664;2023-04-22T02:02:24;60.75;;;16.02;;
39208;SDS011;24929;51.982;4.664;2023-04-22T02:04:50;49.10;;;15.32;;
39208;SDS011;24929;51.982;4.664;2023-04-22T02:07:15;55.20;;;15.77;;
39208;SDS011;24929;51.982;4.664;2023-04-22T02:09:42;129.13;;;15.95;;
39208;SDS011;24929;51.982;4.664;2023-04-22T02:12:07;122.80;;;15.70;;
39208;SDS011;24929;51.982;4.664;2023-04-22T02:14:33;63.55;;;15.18;;
39208;SDS011;24929;51.982;4.664;2023-04-22T02:16:58;91.30;;;16.80;;
39208;SDS011;24929;51.982;4.664;2023-04-22T02:19:26;157.68;;;20.25;;
39208;SDS011;24929;51.982;4.664;2023-04-22T02:21:51;69.75;;;18.20;;
39208;SDS011;24929;51.982;4.664;2023-04-22T02:24:17;146.63;;;20.08;;
39208;SDS011;24929;51.982;4.664;2023-04-22T02:26:42;93.03;;;19.27;;
39208;SDS011;24929;51.982;4.664;2023-04-22T02:29:08;73.45;;;16.70;;
39208;SDS011;24929;51.982;4.664;2023-04-22T02:31:33;94.55;;;17.40;;
39208;SDS011;24929;51.982;4.664;2023-04-22T02:33:58;58.47;;;15.20;;
39208;SDS011;24929;51.982;4.664;2023-04-22T02:36:23;61.58;;;14.75;;
39208;SDS011;24929;51.982;4.664;2023-04-22T02:38:49;57.70;;;17.88;;
39208;SDS011;24929;51.982;4.664;2023-04-22T02:41:14;61.28;;;17.90;;
39208;SDS011;24929;51.982;4.664;2023-04-22T02:43:40;24.08;;;14.80;;
39208;SDS011;24929;51.982;4.664;2023-04-22T02:46:24;36.33;;;16.35;;
39208;SDS011;24929;51.982;4.664;2023-04-22T02:48:50;27.98;;;15.93;;
39208;SDS011;24929;51.982;4.664;2023-04-22T02:51:15;23.20;;;16.50;;
39208;SDS011;24929;51.982;4.664;2023-04-22T02:53:40;23.33;;;16.20;;
39208;SDS011;24929;51.982;4.664;2023-04-22T02:56:06;26.48;;;18.35;;
39208;SDS011;24929;51.982;4.664;2023-04-22T02:58:32;20.27;;;17.58;;
39208;SDS011;24929;51.982;4.664;2023-04-22T03:00:58;21.85;;;15.95;;
39208;SDS011;24929;51.982;4.664;2023-04-22T03:03:23;19.33;;;16.60;;
39208;SDS011;24929;51.982;4.664;2023-04-22T03:05:49;18.45;;;14.25;;
39208;SDS011;24929;51.982;4.664;2023-04-22T03:08:14;19.20;;;16.08;;
39208;SDS011;24929;51.982;4.664;2023-04-22T03:10:39;18.13;;;15.70;;
39208;SDS011;24929;51.982;4.664;2023-04-22T03:13:05;21.58;;;17.42;;
39208;SDS011;24929;51.982;4.664;2023-04-22T03:15:30;21.02;;;16.50;;
39208;SDS011;24929;51.982;4.664;2023-04-22T03:17:55;24.42;;;17.27;;
39208;SDS011;24929;51.982;4.664;2023-04-22T03:20:21;18.73;;;16.33;;
39208;SDS011;24929;51.982;4.664;2023-04-22T03:22:46;22.65;;;17.88;;
39208;SDS011;24929;51.982;4.664;2023-04-22T03:25:12;24.40;;;18.23;;
39208;SDS011;24929;51.982;4.664;2023-04-22T03:27:37;21.20;;;17.40;;
39208;SDS011;24929;51.982;4.664;2023-04-22T03:30:03;20.20;;;17.45;;
39208;SDS011;24929;51.982;4.664;2023-04-22T03:32:29;21.30;;;16.95;;
39208;SDS011;24929;51.982;4.664;2023-04-22T03:34:54;22.88;;;18.90;;
39208;SDS011;24929;51.982;4.664;2023-04-22T03:37:20;22.45;;;17.55;;
39208;SDS011;24929;51.982;4.664;2023-04-22T03:39:45;25.50;;;20.48;;
39208;SDS011;24929;51.982;4.664;2023-04-22T03:42:12;28.15;;;19.77;;
39208;SDS011;24929;51.982;4.664;2023-04-22T03:44:38;28.35;;;20.08;;
39208;SDS011;24929;51.982;4.664;2023-04-22T03:47:03;29.23;;;21.80;;
39208;SDS011;24929;51.982;4.664;2023-04-22T03:49:29;33.55;;;23.25;;
39208;SDS011;24929;51.982;4.664;2023-04-22T03:51:54;29.85;;;21.83;;
39208;SDS011;24929;51.982;4.664;2023-04-22T03:54:20;27.52;;;20.80;;
39208;SDS011;24929;51.982;4.664;2023-04-22T03:56:45;26.33;;;20.27;;
39208;SDS011;24929;51.982;4.664;2023-04-22T03:59:11;28.38;;;20.23;;
39208;SDS011;24929;51.982;4.664;2023-04-22T04:01:36;26.15;;;20.17;;
39208;SDS011;24929;51.982;4.664;2023-04-22T04:04:01;27.90;;;21.23;;
39208;SDS011;24929;51.982;4.664;2023-04-22T04:06:27;33.53;;;24.73;;
39208;SDS011;24929;51.982;4.664;2023-04-22T04:08:52;29.52;;;23.13;;
39208;SDS011;24929;51.982;4.664;2023-04-22T04:11:18;32.17;;;23.35;;
39208;SDS011;24929;51.982;4.664;2023-04-22T04:13:43;31.15;;;23.33;;
39208;SDS011;24929;51.982;4.664;2023-04-22T04:16:08;29.83;;;22.92;;
39208;SDS011;24929;51.982;4.664;2023-04-22T04:18:34;29.75;;;23.38;;
39208;SDS011;24929;51.982;4.664;2023-04-22T04:21:00;26.98;;;21.80;;
39208;SDS011;24929;51.982;4.664;2023-04-22T04:23:26;30.70;;;23.45;;
39208;SDS011;24929;51.982;4.664;2023-04-22T04:25:51;27.63;;;22.92;;
39208;SDS011;24929;51.982;4.664;2023-04-22T04:28:17;33.35;;;22.48;;
39208;SDS011;24929;51.982;4.664;2023-04-22T04:30:43;28.75;;;22.67;;
39208;SDS011;24929;51.982;4.664;2023-04-22T04:33:08;33.72;;;25.08;;
39208;SDS011;24929;51.982;4.664;2023-04-22T04:35:36;31.50;;;22.75;;
39208;SDS011;24929;51.982;4.664;2023-04-22T04:38:02;30.02;;;23.38;;
39208;SDS011;24929;51.982;4.664;2023-04-22T04:40:28;33.95;;;23.73;;
39208;SDS011;24929;51.982;4.664;2023-04-22T04:42:54;29.80;;;22.02;;
39208;SDS011;24929;51.982;4.664;2023-04-22T04:45:21;27.65;;;22.77;;
39208;SDS011;24929;51.982;4.664;2023-04-22T04:47:47;29.02;;;22.55;;
39208;SDS011;24929;51.982;4.664;2023-04-22T04:50:16;35.03;;;23.77;;
39208;SDS011;24929;51.982;4.664;2023-04-22T04:52:42;24.27;;;21.67;;
39208;SDS011;24929;51.982;4.664;2023-04-22T04:55:08;26.80;;;22.65;;
39208;SDS011;24929;51.982;4.664;2023-04-22T04:57:33;30.13;;;23.25;;
39208;SDS011;24929;51.982;4.664;2023-04-22T04:59:58;27.65;;;21.45;;
39208;SDS011;24929;51.982;4.664;2023-04-22T05:02:24;29.25;;;22.38;;
39208;SDS011;24929;51.982;4.664;2023-04-22T05:04:49;28.08;;;22.15;;
39208;SDS011;24929;51.982;4.664;2023-04-22T05:07:15;28.13;;;21.40;;
39208;SDS011;24929;51.982;4.664;2023-04-22T05:09:40;28.13;;;20.38;;
39208;SDS011;24929;51.982;4.664;2023-04-22T05:12:05;29.70;;;22.38;;
39208;SDS011;24929;51.982;4.664;2023-04-22T05:14:31;26.10;;;21.67;;
39208;SDS011;24929;51.982;4.664;2023-04-22T05:16:56;28.75;;;23.33;;
39208;SDS011;24929;51.982;4.664;2023-04-22T05:19:22;27.45;;;22.83;;
39208;SDS011;24929;51.982;4.664;2023-04-22T05:21:47;25.40;;;22.38;;
39208;SDS011;24929;51.982;4.664;2023-04-22T05:24:13;29.73;;;22.30;;
39208;SDS011;24929;51.982;4.664;2023-04-22T05:26:38;25.48;;;22.33;;
39208;SDS011;24929;51.982;4.664;2023-04-22T05:29:04;33.13;;;23.23;;
39208;SDS011;24929;51.982;4.664;2023-04-22T05:31:31;23.80;;;21.20;;
39208;SDS011;24929;51.982;4.664;2023-04-22T05:33:57;27.00;;;22.83;;
39208;SDS011;24929;51.982;4.664;2023-04-22T05:36:23;27.90;;;22.17;;
39208;SDS011;24929;51.982;4.664;2023-04-22T05:38:48;25.95;;;22.65;;
39208;SDS011;24929;51.982;4.664;2023-04-22T05:41:13;26.38;;;21.63;;
39208;SDS011;24929;51.982;4.664;2023-04-22T05:43:39;29.02;;;23.25;;
39208;SDS011;24929;51.982;4.664;2023-04-22T05:46:05;29.58;;;23.17;;
39208;SDS011;24929;51.982;4.664;2023-04-22T05:48:30;23.98;;;20.25;;
39208;SDS011;24929;51.982;4.664;2023-04-22T05:50:55;28.63;;;21.55;;
39208;SDS011;24929;51.982;4.664;2023-04-22T05:53:21;26.27;;;22.77;;
39208;SDS011;24929;51.982;4.664;2023-04-22T05:55:46;24.25;;;20.45;;
39208;SDS011;24929;51.982;4.664;2023-04-22T05:58:11;27.05;;;20.88;;
39208;SDS011;24929;51.982;4.664;2023-04-22T06:00:37;28.00;;;23.30;;
39208;SDS011;24929;51.982;4.664;2023-04-22T06:09:45;23.75;;;20.25;;
39208;SDS011;24929;51.982;4.664;2023-04-22T06:12:11;23.27;;;20.27;;
39208;SDS011;24929;51.982;4.664;2023-04-22T06:14:36;26.98;;;20.23;;
39208;SDS011;24929;51.982;4.664;2023-04-22T06:17:02;26.10;;;21.75;;
39208;SDS011;24929;51.982;4.664;2023-04-22T06:19:27;26.55;;;22.33;;
39208;SDS011;24929;51.982;4.664;2023-04-22T06:25:14;24.00;;;19.42;;
39208;SDS011;24929;51.982;4.664;2023-04-22T06:27:40;24.98;;;18.83;;
39208;SDS011;24929;51.982;4.664;2023-04-22T06:30:05;26.88;;;21.83;;
39208;SDS011;24929;51.982;4.664;2023-04-22T06:32:31;24.20;;;18.98;;
39208;SDS011;24929;51.982;4.664;2023-04-22T06:34:56;24.67;;;20.40;;
39208;SDS011;24929;51.982;4.664;2023-04-22T06:37:22;22.38;;;19.00;;
39208;SDS011;24929;51.982;4.664;2023-04-22T06:39:47;20.77;;;18.52;;
39208;SDS011;24929;51.982;4.664;2023-04-22T06:42:12;22.58;;;19.83;;
39208;SDS011;24929;51.982;4.664;2023-04-22T06:44:38;21.52;;;18.55;;
39208;SDS011;24929;51.982;4.664;2023-04-22T06:47:03;25.88;;;19.02;;
39208;SDS011;24929;51.982;4.664;2023-04-22T06:49:28;23.02;;;20.52;;
39208;SDS011;24929;51.982;4.664;2023-04-22T06:51:54;22.63;;;19.63;;
39208;SDS011;24929;51.982;4.664;2023-04-22T06:54:19;21.27;;;18.80;;
39208;SDS011;24929;51.982;4.664;2023-04-22T06:56:45;20.15;;;18.15;;
39208;SDS011;24929;51.982;4.664;2023-04-22T06:59:10;23.67;;;19.77;;
39208;SDS011;24929;51.982;4.664;2023-04-22T07:01:36;21.33;;;18.98;;
39208;SDS011;24929;51.982;4.664;2023-04-22T07:04:01;21.95;;;19.10;;
39208;SDS011;24929;51.982;4.664;2023-04-22T07:06:27;23.58;;;20.63;;
39208;SDS011;24929;51.982;4.664;2023-04-22T07:08:52;23.38;;;19.90;;
39208;SDS011;24929;51.982;4.664;2023-04-22T07:11:18;25.70;;;19.73;;
39208;SDS011;24929;51.982;4.664;2023-04-22T07:13:43;23.38;;;19.58;;
39208;SDS011;24929;51.982;4.664;2023-04-22T07:16:08;22.65;;;18.73;;
39208;SDS011;24929;51.982;4.664;2023-04-22T07:18:34;20.80;;;18.35;;
39208;SDS011;24929;51.982;4.664;2023-04-22T07:21:00;20.20;;;17.75;;
39208;SDS011;24929;51.982;4.664;2023-04-22T07:23:26;18.55;;;16.65;;
39208;SDS011;24929;51.982;4.664;2023-04-22T07:25:51;20.98;;;16.85;;
39208;SDS011;24929;51.982;4.664;2023-04-22T07:28:17;22.35;;;15.80;;
39208;SDS011;24929;51.982;4.664;2023-04-22T07:30:42;19.92;;;17.75;;
39208;SDS011;24929;51.982;4.664;2023-04-22T07:33:07;18.25;;;16.40;;
39208;SDS011;24929;51.982;4.664;2023-04-22T07:35:33;16.08;;;14.55;;
39208;SDS011;24929;51.982;4.664;2023-04-22T07:37:58;16.05;;;14.45;;
39208;SDS011;24929;51.982;4.664;2023-04-22T07:40:24;17.60;;;15.43;;
39208;SDS011;24929;51.982;4.664;2023-04-22T07:42:49;17.17;;;15.35;;
39208;SDS011;24929;51.982;4.664;2023-04-22T07:45:15;15.38;;;13.57;;
39208;SDS011;24929;51.982;4.664;2023-04-22T07:47:40;15.25;;;13.73;;
39208;SDS011;24929;51.982;4.664;2023-04-22T07:50:06;14.63;;;12.52;;
39208;SDS011;24929;51.982;4.664;2023-04-22T07:52:31;14.57;;;13.07;;
39208;SDS011;24929;51.982;4.664;2023-04-22T07:54:57;14.13;;;12.25;;
39208;SDS011;24929;51.982;4.664;2023-04-22T07:57:22;14.32;;;11.27;;
39208;SDS011;24929;51.982;4.664;2023-04-22T07:59:48;11.55;;;10.43;;
39208;SDS011;24929;51.982;4.664;2023-04-22T08:02:13;12.43;;;10.95;;
39208;SDS011;24929;51.982;4.664;2023-04-22T08:04:39;10.65;;;9.57;;
39208;SDS011;24929;51.982;4.664;2023-04-22T08:07:04;10.85;;;9.80;;
39208;SDS011;24929;51.982;4.664;2023-04-22T08:09:30;10.65;;;8.35;;
39208;SDS011;24929;51.982;4.664;2023-04-22T08:11:55;10.00;;;9.00;;
39208;SDS011;24929;51.982;4.664;2023-04-22T08:14:21;8.65;;;7.50;;
39208;SDS011;24929;51.982;4.664;2023-04-22T08:16:47;13.45;;;8.48;;
39208;SDS011;24929;51.982;4.664;2023-04-22T08:19:12;9.27;;;8.10;;
39208;SDS011;24929;51.982;4.664;2023-04-22T08:21:38;9.25;;;8.35;;
39208;SDS011;24929;51.982;4.664;2023-04-22T08:24:03;7.95;;;7.15;;
39208;SDS011;24929;51.982;4.664;2023-04-22T08:26:33;8.05;;;7.25;;
39208;SDS011;24929;51.982;4.664;2023-04-22T08:29:00;8.13;;;7.30;;
39208;SDS011;24929;51.982;4.664;2023-04-22T08:31:25;8.15;;;7.35;;
39208;SDS011;24929;51.982;4.664;2023-04-22T08:33:51;7.47;;;6.78;;
39208;SDS011;24929;51.982;4.664;2023-04-22T08:36:16;8.52;;;7.25;;
39208;SDS011;24929;51.982;4.664;2023-04-22T08:38:42;8.57;;;6.80;;
39208;SDS011;24929;51.982;4.664;2023-04-22T08:41:08;7.70;;;6.80;;
39208;SDS011;24929;51.982;4.664;2023-04-22T08:43:33;9.93;;;7.07;;
39208;SDS011;24929;51.982;4.664;2023-04-22T08:45:59;6.68;;;6.07;;
39208;SDS011;24929;51.982;4.664;2023-04-22T08:48:26;9.57;;;6.97;;
39208;SDS011;24929;51.982;4.664;2023-04-22T08:50:51;13.40;;;7.13;;
39208;SDS011;24929;51.982;4.664;2023-04-22T08:53:17;8.73;;;7.20;;
39208;SDS011;24929;51.982;4.664;2023-04-22T08:55:47;7.70;;;6.85;;
39208;SDS011;24929;51.982;4.664;2023-04-22T08:58:13;7.20;;;6.55;;
39208;SDS011;24929;51.982;4.664;2023-04-22T09:00:41;8.77;;;7.18;;
39208;SDS011;24929;51.982;4.664;2023-04-22T09:03:07;7.38;;;6.68;;
39208;SDS011;24929;51.982;4.664;2023-04-22T09:05:33;7.35;;;6.65;;
39208;SDS011;24929;51.982;4.664;2023-04-22T09:08:01;8.82;;;7.50;;
39208;SDS011;24929;51.982;4.664;2023-04-22T09:10:28;8.05;;;6.82;;
39208;SDS011;24929;51.982;4.664;2023-04-22T09:12:54;9.05;;;8.18;;
39208;SDS011;24929;51.982;4.664;2023-04-22T09:15:20;9.35;;;8.13;;
39208;SDS011;24929;51.982;4.664;2023-04-22T09:17:46;8.45;;;7.60;;
39208;SDS011;24929;51.982;4.664;2023-04-22T09:20:15;10.57;;;8.52;;
39208;SDS011;24929;51.982;4.664;2023-04-22T09:22:42;8.63;;;7.22;;
39208;SDS011;24929;51.982;4.664;2023-04-22T09:27:52;9.27;;;7.80;;
39208;SDS011;24929;51.982;4.664;2023-04-22T09:30:26;7.97;;;7.15;;
39208;SDS011;24929;51.982;4.664;2023-04-22T09:32:54;8.93;;;7.93;;
39208;SDS011;24929;51.982;4.664;2023-04-22T09:35:29;9.60;;;8.60;;
39208;SDS011;24929;51.982;4.664;2023-04-22T09:37:57;10.38;;;8.82;;
39208;SDS011;24929;51.982;4.664;2023-04-22T09:40:24;10.07;;;8.27;;
39208;SDS011;24929;51.982;4.664;2023-04-22T09:42:50;8.45;;;7.65;;
39208;SDS011;24929;51.982;4.664;2023-04-22T09:45:30;8.32;;;7.47;;
39208;SDS011;24929;51.982;4.664;2023-04-22T09:48:01;8.57;;;7.78;;
39208;SDS011;24929;51.982;4.664;2023-04-22T09:50:28;8.68;;;7.72;;
39208;SDS011;24929;51.982;4.664;2023-04-22T09:53:00;12.32;;;8.30;;
39208;SDS011;24929;51.982;4.664;2023-04-22T09:55:32;8.82;;;7.93;;
39208;SDS011;24929;51.982;4.664;2023-04-22T09:58:06;8.60;;;7.70;;
39208;SDS011;24929;51.982;4.664;2023-04-22T10:00:38;8.95;;;8.10;;
39208;SDS011;24929;51.982;4.664;2023-04-22T10:03:06;8.95;;;8.05;;
39208;SDS011;24929;51.982;4.664;2023-04-22T10:05:32;9.63;;;8.73;;
39208;SDS011;24929;51.982;4.664;2023-04-22T10:08:02;10.25;;;7.70;;
39208;SDS011;24929;51.982;4.664;2023-04-22T10:10:32;11.05;;;8.05;;
39208;SDS011;24929;51.982;4.664;2023-04-22T10:12:58;8.65;;;7.75;;
39208;SDS011;24929;51.982;4.664;2023-04-22T10:15:47;10.73;;;7.65;;
39208;SDS011;24929;51.982;4.664;2023-04-22T10:18:17;6.95;;;6.07;;
39208;SDS011;24929;51.982;4.664;2023-04-22T10:20:45;6.68;;;5.78;;
39208;SDS011;24929;51.982;4.664;2023-04-22T10:23:12;8.77;;;6.43;;
39208;SDS011;24929;51.982;4.664;2023-04-22T10:25:40;6.55;;;5.38;;
39208;SDS011;24929;51.982;4.664;2023-04-22T10:28:06;6.95;;;6.25;;
39208;SDS011;24929;51.982;4.664;2023-04-22T10:30:34;7.55;;;6.60;;
39208;SDS011;24929;51.982;4.664;2023-04-22T10:38:29;8.23;;;7.22;;
39208;SDS011;24929;51.982;4.664;2023-04-22T10:40:58;9.65;;;6.13;;
39208;SDS011;24929;51.982;4.664;2023-04-22T10:43:40;6.82;;;5.78;;
39208;SDS011;24929;51.982;4.664;2023-04-22T10:48:57;7.97;;;7.13;;
39208;SDS011;24929;51.982;4.664;2023-04-22T10:51:42;7.07;;;6.35;;
39208;SDS011;24929;51.982;4.664;2023-04-22T10:59:42;9.77;;;6.07;;
39208;SDS011;24929;51.982;4.664;2023-04-22T11:02:10;7.45;;;6.57;;
39208;SDS011;24929;51.982;4.664;2023-04-22T11:04:37;9.93;;;6.72;;
39208;SDS011;24929;51.982;4.664;2023-04-22T11:17:31;9.63;;;8.07;;
39208;SDS011;24929;51.982;4.664;2023-04-22T11:19:57;11.45;;;8.45;;
39208;SDS011;24929;51.982;4.664;2023-04-22T11:22:23;8.65;;;7.65;;
39208;SDS011;24929;51.982;4.664;2023-04-22T11:24:55;9.98;;;8.98;;
39208;SDS011;24929;51.982;4.664;2023-04-22T11:27:21;9.43;;;7.90;;
39208;SDS011;24929;51.982;4.664;2023-04-22T11:32:34;10.07;;;7.93;;
39208;SDS011;24929;51.982;4.664;2023-04-22T11:35:03;8.90;;;7.28;;
39208;SDS011;24929;51.982;4.664;2023-04-22T11:37:30;13.02;;;8.07;;
39208;SDS011;24929;51.982;4.664;2023-04-22T11:40:07;10.25;;;9.02;;
39208;SDS011;24929;51.982;4.664;2023-04-22T11:42:35;10.10;;;8.90;;
39208;SDS011;24929;51.982;4.664;2023-04-22T11:45:00;10.45;;;9.35;;
39208;SDS011;24929;51.982;4.664;2023-04-22T11:47:28;11.68;;;10.48;;
39208;SDS011;24929;51.982;4.664;2023-04-22T11:49:55;11.80;;;9.57;;
39208;SDS011;24929;51.982;4.664;2023-04-22T11:52:21;15.23;;;10.35;;
39208;SDS011;24929;51.982;4.664;2023-04-22T11:54:46;11.10;;;9.90;;
39208;SDS011;24929;51.982;4.664;2023-04-22T11:57:12;13.48;;;10.07;;
39208;SDS011;24929;51.982;4.664;2023-04-22T11:59:40;12.35;;;11.15;;
39208;SDS011;24929;51.982;4.664;2023-04-22T12:02:06;12.68;;;10.25;;
39208;SDS011;24929;51.982;4.664;2023-04-22T12:04:38;13.45;;;10.93;;
39208;SDS011;24929;51.982;4.664;2023-04-22T12:07:04;14.82;;;11.75;;
39208;SDS011;24929;51.982;4.664;2023-04-22T12:09:30;13.70;;;11.55;;
39208;SDS011;24929;51.982;4.664;2023-04-22T12:11:55;14.88;;;12.32;;
39208;SDS011;24929;51.982;4.664;2023-04-22T12:14:27;18.67;;;14.18;;
39208;SDS011;24929;51.982;4.664;2023-04-22T12:16:55;17.95;;;14.65;;
39208;SDS011;24929;51.982;4.664;2023-04-22T12:19:30;15.95;;;14.15;;
39208;SDS011;24929;51.982;4.664;2023-04-22T12:21:55;20.30;;;15.32;;
39208;SDS011;24929;51.982;4.664;2023-04-22T12:24:26;16.30;;;14.32;;
39208;SDS011;24929;51.982;4.664;2023-04-22T12:26:52;20.95;;;15.57;;
39208;SDS011;24929;51.982;4.664;2023-04-22T12:29:25;21.15;;;15.30;;
39208;SDS011;24929;51.982;4.664;2023-04-22T12:31:51;27.10;;;20.65;;
39208;SDS011;24929;51.982;4.664;2023-04-22T12:34:16;27.55;;;20.67;;
39208;SDS011;24929;51.982;4.664;2023-04-22T12:36:42;26.73;;;21.05;;
39208;SDS011;24929;51.982;4.664;2023-04-22T12:39:07;29.35;;;23.33;;
39208;SDS011;24929;51.982;4.664;2023-04-22T12:41:34;26.33;;;22.60;;
39208;SDS011;24929;51.982;4.664;2023-04-22T12:44:00;27.33;;;21.90;;
39208;SDS011;24929;51.982;4.664;2023-04-22T12:46:25;27.10;;;21.60;;
39208;SDS011;24929;51.982;4.664;2023-04-22T12:48:51;26.00;;;21.63;;
39208;SDS011;24929;51.982;4.664;2023-04-22T12:51:16;30.15;;;22.95;;
39208;SDS011;24929;51.982;4.664;2023-04-22T12:53:41;25.67;;;21.10;;
39208;SDS011;24929;51.982;4.664;2023-04-22T12:56:07;29.58;;;22.67;;
39208;SDS011;24929;51.982;4.664;2023-04-22T12:58:32;33.28;;;22.95;;
39208;SDS011;24929;51.982;4.664;2023-04-22T13:00:57;30.10;;;23.58;;
39208;SDS011;24929;51.982;4.664;2023-04-22T13:03:23;29.15;;;21.00;;
39208;SDS011;24929;51.982;4.664;2023-04-22T13:05:48;27.63;;;21.45;;
39208;SDS011;24929;51.982;4.664;2023-04-22T13:08:14;30.02;;;22.75;;
39208;SDS011;24929;51.982;4.664;2023-04-22T13:10:39;25.90;;;21.15;;
39208;SDS011;24929;51.982;4.664;2023-04-22T13:13:04;29.00;;;20.88;;
39208;SDS011;24929;51.982;4.664;2023-04-22T13:15:31;28.92;;;22.20;;
39208;SDS011;24929;51.982;4.664;2023-04-22T13:17:57;26.90;;;20.90;;
39208;SDS011;24929;51.982;4.664;2023-04-22T13:20:22;25.92;;;22.33;;
39208;SDS011;24929;51.982;4.664;2023-04-22T13:22:48;28.52;;;22.00;;
39208;SDS011;24929;51.982;4.664;2023-04-22T13:25:14;30.83;;;21.50;;
39208;SDS011;24929;51.982;4.664;2023-04-22T13:27:40;25.13;;;21.60;;
39208;SDS011;24929;51.982;4.664;2023-04-22T13:30:06;26.77;;;21.30;;
39208;SDS011;24929;51.982;4.664;2023-04-22T13:32:32;33.92;;;22.15;;
39208;SDS011;24929;51.982;4.664;2023-04-22T13:34:58;28.30;;;22.23;;
39208;SDS011;24929;51.982;4.664;2023-04-22T13:37:23;30.05;;;23.70;;
39208;SDS011;24929;51.982;4.664;2023-04-22T13:39:49;24.13;;;19.70;;
39208;SDS011;24929;51.982;4.664;2023-04-22T13:42:14;29.38;;;20.77;;
39208;SDS011;24929;51.982;4.664;2023-04-22T13:44:40;25.67;;;20.40;;
39208;SDS011;24929;51.982;4.664;2023-04-22T13:47:05;28.83;;;21.98;;
39208;SDS011;24929;51.982;4.664;2023-04-22T13:49:31;24.90;;;21.00;;
39208;SDS011;24929;51.982;4.664;2023-04-22T13:51:56;31.38;;;21.58;;
39208;SDS011;24929;51.982;4.664;2023-04-22T13:54:21;28.00;;;19.73;;
39208;SDS011;24929;51.982;4.664;2023-04-22T13:56:47;25.15;;;19.08;;
39208;SDS011;24929;51.982;4.664;2023-04-22T13:59:13;26.52;;;19.83;;
39208;SDS011;24929;51.982;4.664;2023-04-22T14:01:38;28.85;;;21.75;;
39208;SDS011;24929;51.982;4.664;2023-04-22T14:04:04;29.27;;;20.83;;
39208;SDS011;24929;51.982;4.664;2023-04-22T14:06:29;24.55;;;19.55;;
39208;SDS011;24929;51.982;4.664;2023-04-22T14:08:55;27.35;;;20.83;;
39208;SDS011;24929;51.982;4.664;2023-04-22T14:11:20;25.70;;;20.92;;
39208;SDS011;24929;51.982;4.664;2023-04-22T14:13:45;25.45;;;20.20;;
39208;SDS011;24929;51.982;4.664;2023-04-22T14:16:11;27.33;;;21.77;;
39208;SDS011;24929;51.982;4.664;2023-04-22T14:18:38;33.13;;;23.30;;
39208;SDS011;24929;51.982;4.664;2023-04-22T14:21:05;33.42;;;23.55;;
39208;SDS011;24929;51.982;4.664;2023-04-22T14:23:33;37.78;;;24.42;;
39208;SDS011;24929;51.982;4.664;2023-04-22T14:26:03;35.30;;;25.30;;
39208;SDS011;24929;51.982;4.664;2023-04-22T14:28:29;32.45;;;24.20;;
39208;SDS011;24929;51.982;4.664;2023-04-22T14:30:54;28.65;;;22.88;;
39208;SDS011;24929;51.982;4.664;2023-04-22T14:33:20;36.47;;;23.77;;
39208;SDS011;24929;51.982;4.664;2023-04-22T14:35:48;37.05;;;24.25;;
39208;SDS011;24929;51.982;4.664;2023-04-22T14:38:13;30.60;;;24.83;;
39208;SDS011;24929;51.982;4.664;2023-04-22T14:40:39;31.35;;;25.00;;
39208;SDS011;24929;51.982;4.664;2023-04-22T14:43:05;31.38;;;24.40;;
39208;SDS011;24929;51.982;4.664;2023-04-22T14:45:31;37.53;;;27.70;;
39208;SDS011;24929;51.982;4.664;2023-04-22T14:47:57;34.83;;;26.95;;
39208;SDS011;24929;51.982;4.664;2023-04-22T14:50:23;37.22;;;25.55;;
39208;SDS011;24929;51.982;4.664;2023-04-22T14:56:11;34.47;;;24.27;;
39208;SDS011;24929;51.982;4.664;2023-04-22T14:58:37;36.08;;;27.77;;
39208;SDS011;24929;51.982;4.664;2023-04-22T15:01:02;37.42;;;27.50;;
39208;SDS011;24929;51.982;4.664;2023-04-22T15:03:27;35.85;;;26.25;;